EW3791 Weather Reports


Display with metric or nautical units.
time (UTC)temp
F
wind
direction
speed
MPH
gust
MPH
rain 1hr
in
rain 24hr
in
rain mn
in
humidity
%
barometer
mb
20190421004612 76 274 0.0 3.0 0.00 0.00 0.00 38 1014.9
20190421003025 77 290 1.0 3.0 0.00 0.00 0.00 35 1015.1
20190421001620 77 235 1.0 5.0 0.00 0.00 0.00 35 1015.0
20190421000036 78 269 1.0 6.0 0.00 0.00 0.00 34 1015.0
20190420233047 78 224 3.0 9.0 0.00 0.00 0.00 33 1015.2
20190420231544 79 235 2.0 6.0 0.00 0.00 0.00 32 1015.4
20190420230115 78 264 3.0 7.0 0.00 0.00 0.00 33 1015.5
20190420224523 79 233 5.0 9.0 0.00 0.00 0.00 33 1015.5
20190420221547 79 195 3.0 7.0 0.00 0.00 0.00 30 1015.5
20190420220003 79 282 1.0 7.0 0.00 0.00 0.00 32 1015.7
20190420214623 79 155 2.0 8.0 0.00 0.00 0.00 30 1016.0
20190420213029 78 294 3.0 11.0 0.00 0.00 0.00 32 1016.1
20190420211655 78 165 3.0 7.0 0.00 0.00 0.00 31 1016.4
20190420210046 78 234 4.0 7.0 0.00 0.00 0.00 31 1016.6
20190420204635 78 287 1.0 10.0 0.00 0.00 0.00 32 1016.8
20190420203125 77 86 2.0 10.0 0.00 0.00 0.00 30 1017.1
20190420200144 77 231 2.0 9.0 0.00 0.00 0.00 30 1017.7
20190420194514 77 274 2.0 6.0 0.00 0.00 0.00 30 1017.7
20190420193147 76 309 2.0 9.0 0.00 0.00 0.00 30 1018.1
20190420191618 75 227 1.0 7.0 0.00 0.00 0.00 29 1018.3
20190420184602 75 306 3.0 9.0 0.00 0.00 0.00 31 1018.7
20190420183003 76 266 3.0 8.0 0.00 0.00 0.00 29 1018.9
20190420181616 75 233 1.0 8.0 0.00 0.00 0.00 30 1019.0
20190420174619 75 127 3.0 7.0 0.00 0.00 0.00 30 1019.3
20190420173011 73 279 2.0 6.0 0.00 0.00 0.00 31 1019.4
20190420171657 72 233 2.0 7.0 0.00 0.00 0.00 30 1019.6
20190420170040 72 292 1.0 6.0 0.00 0.00 0.00 32 1019.7
20190420164649 71 302 3.0 9.0 0.00 0.00 0.00 32 1019.9
20190420163051 71 69 2.0 6.0 0.00 0.00 0.00 33 1020.0
20190420160135 70 77 2.0 5.0 0.00 0.00 0.00 34 1020.2
20190420154504 70 141 0.0 4.0 0.00 0.00 0.00 35 1020.2
20190420153122 69 147 2.0 5.0 0.00 0.00 0.00 38 1020.1
20190420151523 68 299 2.0 4.0 0.00 0.00 0.00 37 1020.1
20190420150136 68 291 1.0 3.0 0.00 0.00 0.00 43 1020.0
20190420144519 66 318 2.0 5.0 0.00 0.00 0.00 44 1019.9
20190420143159 66 323 0.0 3.0 0.00 0.00 0.00 49 1019.8
20190420141540 63 318 1.0 3.0 0.00 0.00 0.00 53 1019.8
20190420134544 59 300 0.0 3.0 0.00 0.00 0.00 65 1019.5
20190420131608 56 319 2.0 4.0 0.00 0.00 0.00 71 1019.4
20190420130008 55 297 1.0 2.0 0.00 0.00 0.00 75 1019.2
20190420124648 53 297 0.0 1.0 0.00 0.00 0.00 78 1019.0
20190420123010 52 297 0.0 1.0 0.00 0.00 0.00 78 1019.0
20190420121744 51 297 0.0 2.0 0.00 0.00 0.00 80 1018.8
20190420120037 51 297 0.0 1.0 0.00 0.00 0.00 80 1018.4
20190420114652 51 297 0.0 1.0 0.00 0.00 0.00 79 1018.3
20190420113039 52 297 1.0 2.0 0.00 0.00 0.00 79 1018.3
20190420110131 51 297 0.0 1.0 0.00 0.00 0.00 79 1017.8
20190420104520 51 297 0.0 1.0 0.00 0.00 0.00 79 1017.7
20190420103245 51 297 0.0 1.0 0.00 0.00 0.00 79 1017.7
20190420101527 52 297 0.0 1.0 0.00 0.00 0.00 79 1017.7
20190420100202 52 297 0.0 1.0 0.00 0.00 0.00 79 1017.6
20190420094555 51 297 0.0 1.0 0.00 0.00 0.00 81 1017.6
20190420091653 51 297 0.0 0.0 0.00 0.00 0.00 79 1017.7
20190420090009 52 297 0.0 1.0 0.00 0.00 0.00 77 1017.6
20190420084631 53 297 0.0 0.0 0.00 0.00 0.00 76 1017.4
20190420083011 53 297 0.0 1.0 0.00 0.00 0.00 74 1017.4
20190420081626 54 297 0.0 1.0 0.00 0.00 0.00 71 1017.6
20190420080028 55 297 0.0 2.0 0.00 0.00 0.00 69 1017.6
20190420074729 55 297 0.0 2.0 0.00 0.00 0.00 69 1017.5
20190420073107 55 297 1.0 2.0 0.00 0.00 0.00 68 1017.5
20190420070059 56 297 0.0 2.0 0.00 0.00 0.00 66 1017.9
20190420064502 56 297 0.0 2.0 0.00 0.00 0.00 65 1018.0
20190420063106 57 297 1.0 2.0 0.00 0.00 0.00 63 1018.0
20190420061532 58 297 0.0 2.0 0.00 0.00 0.00 61 1018.1
20190420060142 58 297 0.0 2.0 0.00 0.00 0.00 60 1018.2
20190420054551 58 298 0.0 2.0 0.00 0.00 0.00 60 1018.3
20190420051713 59 313 0.0 2.0 0.00 0.00 0.00 58 1018.2
20190420050013 59 313 1.0 2.0 0.00 0.00 0.00 57 1018.2
20190420044712 59 313 0.0 2.0 0.00 0.00 0.00 58 1018.1
20190420043057 60 311 0.0 2.0 0.00 0.00 0.00 55 1018.1
20190420041648 60 311 0.0 2.0 0.00 0.00 0.00 55 1018.0
20190420040112 61 311 0.0 2.0 0.00 0.00 0.00 52 1017.9
20190420033102 62 311 1.0 3.0 0.00 0.00 0.00 49 1017.8
20190420031520 62 326 1.0 4.0 0.00 0.00 0.00 47 1017.6
20190420030205 63 328 2.0 5.0 0.00 0.00 0.00 46 1017.4
20190420024538 63 332 2.0 5.0 0.00 0.00 0.00 44 1017.3
20190420021544 64 290 3.0 7.0 0.00 0.00 0.00 41 1016.8
20190420014616 66 315 4.0 7.0 0.00 0.00 0.00 38 1016.2
20190420013017 66 307 5.0 12.0 0.00 0.00 0.00 37 1016.0
20190420011651 67 285 5.0 10.0 0.00 0.00 0.00 36 1015.8
20190420010055 67 302 6.0 12.0 0.00 0.00 0.00 35 1015.7